createdAt,value
2023-01-11T00:00:44.116Z,9.68
2023-01-11T00:05:45.588Z,9.23
2023-01-11T00:10:47.039Z,9.25
2023-01-11T00:15:48.547Z,8.95
2023-01-11T00:20:50.008Z,8.88
2023-01-11T00:25:51.455Z,7.85
2023-01-11T00:30:52.976Z,7.32
2023-01-11T00:35:54.429Z,7.93
2023-01-11T00:40:55.894Z,6.90
2023-01-11T00:45:57.378Z,7.05
2023-01-11T00:50:58.865Z,6.72
2023-01-11T00:56:00.290Z,6.05
2023-01-11T01:01:01.730Z,5.65
2023-01-11T01:06:03.194Z,5.40
2023-01-11T01:11:04.647Z,5.65
2023-01-11T01:16:06.162Z,5.38
2023-01-11T01:21:07.648Z,6.40
2023-01-11T01:26:09.093Z,6.03
2023-01-11T01:31:10.562Z,5.07
2023-01-11T01:36:12.053Z,5.35
2023-01-11T01:41:13.496Z,5.78
2023-01-11T01:46:14.972Z,5.35
2023-01-11T01:51:16.463Z,7.07
2023-01-11T01:56:17.901Z,5.50
2023-01-11T02:01:19.420Z,5.18
2023-01-11T02:06:20.891Z,4.90
2023-01-11T02:11:22.332Z,4.07
2023-01-11T02:16:23.800Z,4.57
2023-01-11T02:21:25.311Z,2.78
2023-01-11T02:26:26.803Z,3.97
2023-01-11T02:31:28.332Z,4.38
2023-01-11T02:36:29.805Z,3.42
2023-01-11T02:41:31.235Z,4.47
2023-01-11T02:46:32.795Z,3.50
2023-01-11T02:51:34.260Z,5.07
2023-01-11T02:56:35.719Z,3.85
2023-01-11T03:01:37.198Z,5.70
2023-01-11T03:06:38.638Z,4.45
2023-01-11T03:11:40.131Z,3.03
2023-01-11T03:16:41.591Z,4.40
2023-01-11T03:21:43.015Z,5.35
2023-01-11T03:26:44.516Z,5.78
2023-01-11T03:31:45.975Z,4.85
2023-01-11T03:36:47.440Z,4.82
2023-01-11T03:41:48.900Z,4.88
2023-01-11T03:46:50.428Z,3.88
2023-01-11T03:51:51.887Z,5.95
2023-01-11T03:56:53.360Z,3.22
2023-01-11T04:01:54.847Z,7.28
2023-01-11T04:06:56.389Z,7.78
2023-01-11T04:11:57.843Z,4.78
2023-01-11T04:16:59.279Z,5.28
2023-01-11T04:22:00.886Z,7.53
2023-01-11T04:27:02.392Z,4.88
2023-01-11T04:32:03.867Z,6.93
2023-01-11T04:37:05.333Z,4.68
2023-01-11T04:42:06.786Z,5.97
2023-01-11T04:47:08.229Z,5.63
2023-01-11T04:52:09.685Z,5.35
2023-01-11T04:57:11.146Z,3.75
2023-01-11T05:02:12.563Z,4.40
2023-01-11T05:07:14.000Z,4.28
2023-01-11T05:12:15.443Z,4.55
2023-01-11T05:17:16.868Z,4.05
2023-01-11T05:22:18.402Z,4.55
2023-01-11T05:27:19.861Z,6.47
2023-01-11T05:32:21.315Z,3.55
2023-01-11T05:37:22.764Z,4.60
2023-01-11T05:42:24.179Z,4.10
2023-01-11T05:47:25.607Z,4.07
2023-01-11T05:52:27.031Z,4.03
2023-01-11T05:57:28.491Z,2.55
2023-01-11T06:02:30.083Z,3.25
2023-01-11T06:07:31.584Z,3.83
2023-01-11T06:12:33.013Z,3.22
2023-01-11T06:17:34.451Z,2.42
2023-01-11T06:22:35.906Z,4.22
2023-01-11T06:27:37.359Z,2.58
2023-01-11T06:32:38.822Z,4.38
2023-01-11T06:37:40.263Z,3.55
2023-01-11T06:42:41.689Z,3.00
2023-01-11T06:47:43.145Z,3.78
2023-01-11T06:52:44.573Z,3.08
2023-01-11T06:57:46.000Z,4.45
2023-01-11T07:02:47.465Z,2.65
2023-01-11T07:07:48.915Z,2.47
2023-01-11T07:12:50.333Z,1.27
2023-01-11T07:17:51.795Z,2.03
2023-01-11T07:22:53.235Z,2.58
2023-01-11T07:27:54.665Z,2.53
2023-01-11T07:32:56.154Z,1.92
2023-01-11T07:37:57.622Z,2.53
2023-01-11T07:42:59.087Z,2.08
2023-01-11T07:48:00.571Z,2.63
2023-01-11T07:53:02.047Z,1.58
2023-01-11T07:58:04.586Z,2.22
2023-01-11T08:03:06.207Z,2.22
2023-01-11T08:08:08.610Z,1.42
2023-01-11T08:13:11.442Z,2.60
2023-01-11T08:18:13.890Z,2.70
2023-01-11T08:23:16.386Z,1.35
2023-01-11T08:28:18.987Z,1.85
2023-01-11T08:33:20.795Z,1.73
2023-01-11T08:38:22.270Z,2.20
2023-01-11T08:43:23.729Z,2.70
2023-01-11T08:48:25.186Z,1.50
2023-01-11T08:53:26.667Z,1.38
2023-01-11T08:58:28.173Z,2.50
2023-01-11T09:03:29.696Z,1.80
2023-01-11T09:08:31.641Z,2.85
2023-01-11T09:13:33.100Z,1.30
2023-01-11T09:18:34.564Z,1.80
2023-01-11T09:23:35.993Z,2.35
2023-01-11T09:28:37.412Z,2.60
2023-01-11T09:33:38.868Z,2.22
2023-01-11T09:38:40.350Z,1.95
2023-01-11T09:43:41.775Z,2.42
2023-01-11T09:48:43.950Z,2.58
2023-01-11T09:53:45.418Z,2.03
2023-01-11T09:58:46.857Z,2.15
2023-01-11T10:03:48.315Z,2.10
2023-01-11T10:18:33.078Z,1.60
2023-01-11T10:19:39.554Z,2.53
2023-01-11T10:24:42.509Z,3.00
2023-01-11T10:29:44.093Z,2.70
2023-01-11T10:34:45.551Z,2.67
2023-01-11T10:39:47.015Z,2.75
2023-01-11T10:44:48.447Z,1.90
2023-01-11T10:49:50.003Z,1.27
2023-01-11T10:54:51.451Z,1.52
2023-01-11T10:59:53.025Z,1.50
2023-01-11T11:04:54.457Z,1.63
2023-01-11T11:09:55.936Z,2.05
2023-01-11T11:14:57.365Z,1.83
2023-01-11T11:19:58.830Z,1.73
2023-01-11T11:25:00.325Z,1.65
2023-01-11T11:30:01.759Z,2.05
2023-01-11T11:35:03.306Z,1.85
2023-01-11T11:40:04.776Z,2.50
2023-01-11T11:45:06.234Z,1.45
2023-01-11T11:50:07.774Z,1.02
2023-01-11T11:55:09.195Z,2.30
2023-01-11T12:00:10.636Z,2.65
2023-01-11T12:05:12.091Z,1.42
2023-01-11T12:10:13.567Z,1.50
2023-01-11T12:15:15.021Z,2.22
2023-01-11T12:20:16.452Z,2.40
2023-01-11T12:25:17.939Z,2.20
2023-01-11T12:30:20.340Z,1.98
2023-01-11T12:35:21.863Z,2.97
2023-01-11T12:40:23.287Z,2.65
2023-01-11T12:45:24.750Z,1.92
2023-01-11T12:50:26.183Z,2.55
2023-01-11T12:55:27.618Z,2.20
2023-01-11T13:00:29.103Z,2.25
2023-01-11T13:05:30.556Z,2.97
2023-01-11T13:10:32.005Z,2.15
2023-01-11T13:15:34.564Z,2.78
2023-01-11T13:20:48.604Z,2.20
2023-01-11T13:25:55.068Z,2.22
2023-01-11T13:30:56.585Z,2.60
2023-01-11T13:35:58.020Z,2.78
2023-01-11T13:40:59.452Z,2.95
2023-01-11T13:46:00.941Z,2.70
2023-01-11T13:51:02.469Z,2.80
2023-01-11T13:56:03.915Z,2.83
2023-01-11T14:01:05.452Z,3.13
2023-01-11T14:06:06.952Z,2.20
2023-01-11T14:11:08.441Z,2.50
2023-01-11T14:16:10.010Z,3.15
2023-01-11T14:21:11.558Z,3.42
2023-01-11T14:26:13.004Z,3.42
2023-01-11T14:31:14.458Z,3.33
2023-01-11T14:36:15.895Z,3.08
2023-01-11T14:41:17.372Z,3.10
2023-01-11T14:46:18.892Z,2.95
2023-01-11T14:51:23.807Z,3.35
2023-01-11T14:56:27.398Z,3.00
2023-01-11T15:01:28.872Z,2.75
2023-01-11T15:06:30.316Z,3.63
2023-01-11T15:11:31.741Z,3.42
2023-01-11T15:16:33.214Z,3.20
2023-01-11T15:21:34.709Z,3.60
2023-01-11T15:26:36.190Z,4.25
2023-01-11T15:31:37.818Z,3.53
2023-01-11T15:36:39.388Z,3.83
2023-01-11T15:41:40.816Z,3.20
2023-01-11T15:46:42.334Z,4.90
2023-01-11T15:51:43.891Z,3.17
2023-01-11T15:56:45.355Z,3.03
2023-01-11T16:01:46.796Z,3.83
2023-01-11T16:06:48.239Z,4.15
2023-01-11T16:11:49.660Z,3.80
2023-01-11T16:16:51.078Z,3.80
2023-01-11T16:21:52.501Z,3.25
2023-01-11T16:26:53.966Z,3.60
2023-01-11T16:31:55.642Z,3.85
2023-01-11T16:36:57.133Z,4.20
2023-01-11T16:41:58.566Z,4.32
2023-01-11T16:47:00.058Z,4.28
2023-01-11T16:52:01.489Z,4.75
2023-01-11T16:57:02.956Z,4.90
2023-01-11T17:02:04.436Z,4.68
2023-01-11T17:07:05.919Z,4.35
2023-01-11T17:12:07.385Z,5.63
2023-01-11T17:17:09.005Z,5.72
2023-01-11T17:22:10.586Z,6.05
2023-01-11T17:27:12.046Z,5.85
2023-01-11T17:32:13.481Z,5.93
2023-01-11T17:37:14.908Z,5.72
2023-01-11T17:42:16.356Z,6.00
2023-01-11T17:47:17.775Z,5.85
2023-01-11T17:52:19.278Z,6.32
2023-01-11T17:57:20.735Z,5.63
2023-01-11T18:02:22.258Z,5.68
2023-01-11T18:07:23.815Z,6.45
2023-01-11T18:12:25.347Z,5.75
2023-01-11T18:17:26.975Z,5.97
2023-01-11T18:22:28.482Z,6.90
2023-01-11T18:27:29.947Z,4.90
2023-01-11T18:32:31.561Z,5.40
2023-01-11T18:37:33.031Z,6.00
2023-01-11T18:42:34.576Z,5.55
2023-01-11T18:47:36.182Z,5.30
2023-01-11T18:52:37.648Z,5.25
2023-01-11T18:57:39.157Z,5.00
2023-01-11T19:02:42.417Z,4.00
2023-01-11T19:07:44.487Z,3.70
2023-01-11T19:12:45.934Z,3.72
2023-01-11T19:17:47.494Z,3.53
2023-01-11T19:22:49.090Z,3.25
2023-01-11T19:27:50.997Z,3.72
2023-01-11T19:32:52.642Z,4.15
2023-01-11T19:37:54.093Z,3.95
2023-01-11T19:42:55.693Z,4.20
2023-01-11T19:47:57.962Z,4.88
2023-01-11T19:52:59.661Z,4.47
2023-01-11T19:58:01.090Z,5.15
2023-01-11T20:03:02.759Z,4.93
2023-01-11T20:08:04.411Z,5.88
2023-01-11T20:13:05.890Z,5.72
2023-01-11T20:18:07.421Z,5.65
2023-01-11T20:23:09.007Z,5.70
2023-01-11T20:28:10.492Z,6.25
2023-01-11T20:33:12.049Z,6.35
2023-01-11T20:38:13.512Z,7.10
2023-01-11T20:43:14.957Z,7.03
2023-01-11T20:48:16.430Z,7.93
2023-01-11T20:53:18.035Z,8.13
2023-01-11T20:58:19.651Z,8.65
2023-01-11T21:03:21.313Z,8.38
2023-01-11T21:08:22.805Z,9.02
2023-01-11T21:13:24.241Z,8.27
2023-01-11T21:18:25.680Z,9.25
2023-01-11T21:23:27.229Z,9.02
2023-01-11T21:28:28.660Z,9.68
2023-01-11T21:33:30.083Z,9.18
2023-01-11T21:38:31.679Z,9.20
2023-01-11T21:43:33.152Z,9.27
2023-01-11T21:48:34.619Z,9.38
2023-01-11T21:53:36.059Z,10.27
2023-01-11T21:58:37.492Z,10.48
2023-01-11T22:03:39.006Z,9.98
2023-01-11T22:08:40.457Z,9.80
2023-01-11T22:13:41.893Z,10.02
2023-01-11T22:18:43.332Z,9.88
2023-01-11T22:23:44.805Z,9.85
2023-01-11T22:28:46.273Z,9.45
2023-01-11T22:33:47.723Z,8.93
2023-01-11T22:38:49.194Z,8.57
2023-01-11T22:43:50.627Z,9.02
2023-01-11T22:48:52.082Z,8.52
2023-01-11T22:53:53.547Z,7.57
2023-01-11T22:58:55.015Z,7.53
2023-01-11T23:03:56.576Z,7.65
2023-01-11T23:08:58.086Z,7.03
2023-01-11T23:13:59.527Z,7.90
2023-01-11T23:19:00.987Z,7.20
2023-01-11T23:24:02.451Z,7.93
2023-01-11T23:29:03.922Z,7.25
2023-01-11T23:34:05.393Z,6.47
2023-01-11T23:39:06.830Z,6.40
2023-01-11T23:44:08.257Z,6.75
2023-01-11T23:49:09.730Z,6.25
2023-01-11T23:54:11.163Z,5.95
2023-01-11T23:59:12.631Z,6.75
